createdAt,value
2023-04-28T00:01:26.445Z,5.43
2023-04-28T00:03:55.414Z,4.77
2023-04-28T00:06:24.193Z,4.67
2023-04-28T00:08:52.643Z,5.13
2023-04-28T00:11:21.569Z,5.57
2023-04-28T00:13:50.044Z,5.23
2023-04-28T00:16:18.194Z,4.60
2023-04-28T00:18:46.692Z,4.80
2023-04-28T00:21:15.383Z,5.20
2023-04-28T00:23:43.882Z,5.03
2023-04-28T00:26:12.446Z,5.13
2023-04-28T00:28:41.606Z,4.90
2023-04-28T00:31:15.773Z,4.97
2023-04-28T00:33:45.344Z,5.30
2023-04-28T00:40:21.133Z,4.80
2023-04-28T00:42:49.586Z,5.10
2023-04-28T00:45:17.887Z,5.50
2023-04-28T00:47:46.263Z,6.10
2023-04-28T00:50:14.835Z,5.70
2023-04-28T00:52:44.401Z,5.30
2023-04-28T00:55:12.995Z,5.67
2023-04-28T00:57:41.728Z,5.13
2023-04-28T01:00:11.272Z,5.63
2023-04-28T01:02:40.058Z,6.80
2023-04-28T01:05:09.663Z,5.73
2023-04-28T01:07:38.404Z,5.50
2023-04-28T01:10:07.130Z,5.37
2023-04-28T01:12:36.062Z,6.30
2023-04-28T01:15:04.947Z,5.37
2023-04-28T01:17:33.459Z,6.47
2023-04-28T01:20:02.006Z,6.17
2023-04-28T01:22:30.589Z,5.60
2023-04-28T01:25:00.314Z,5.30
2023-04-28T01:27:28.928Z,6.23
2023-04-28T01:29:58.514Z,5.90
2023-04-28T01:32:27.220Z,5.93
2023-04-28T01:34:55.691Z,6.13
2023-04-28T01:37:24.027Z,5.70
2023-04-28T01:39:52.192Z,5.67
2023-04-28T01:42:20.736Z,5.77
2023-04-28T01:44:49.267Z,5.77
2023-04-28T01:47:17.770Z,6.40
2023-04-28T01:49:48.240Z,6.67
2023-04-28T01:52:16.847Z,6.07
2023-04-28T01:54:45.287Z,6.00
2023-04-28T01:57:14.705Z,6.13
2023-04-28T01:59:44.332Z,6.13
2023-04-28T02:02:12.823Z,6.23
2023-04-28T02:04:41.658Z,7.07
2023-04-28T02:07:10.203Z,7.13
2023-04-28T02:09:38.544Z,5.70
2023-04-28T02:12:07.130Z,6.97
2023-04-28T02:14:35.635Z,7.17
2023-04-28T02:17:05.551Z,7.17
2023-04-28T02:19:33.953Z,6.33
2023-04-28T02:22:02.458Z,7.47
2023-04-28T02:24:31.069Z,6.57
2023-04-28T02:26:59.637Z,7.77
2023-04-28T02:29:28.438Z,7.33
2023-04-28T02:31:57.065Z,7.60
2023-04-28T02:34:25.636Z,7.30
2023-04-28T02:36:54.737Z,8.13
2023-04-28T02:39:25.717Z,7.60
2023-04-28T02:41:55.019Z,7.93
2023-04-28T02:44:25.052Z,8.33
2023-04-28T02:46:53.769Z,7.63
2023-04-28T02:49:22.255Z,7.90
2023-04-28T02:51:50.760Z,7.93
2023-04-28T02:54:27.479Z,8.37
2023-04-28T02:56:56.669Z,8.37
2023-04-28T02:59:27.269Z,8.10
2023-04-28T03:01:55.907Z,8.60
2023-04-28T03:04:24.514Z,8.10
2023-04-28T03:06:53.202Z,9.23
2023-04-28T03:09:21.744Z,8.33
2023-04-28T03:11:50.214Z,8.70
2023-04-28T03:14:18.357Z,10.00
2023-04-28T03:16:46.650Z,8.63
2023-04-28T03:19:14.821Z,8.27
2023-04-28T03:21:43.368Z,9.07
2023-04-28T03:24:12.435Z,8.03
2023-04-28T03:26:40.888Z,8.90
2023-04-28T03:29:09.062Z,9.63
2023-04-28T03:31:37.606Z,9.50
2023-04-28T03:34:05.848Z,9.80
2023-04-28T03:36:34.377Z,9.17
2023-04-28T03:39:03.057Z,9.73
2023-04-28T03:41:31.646Z,9.23
2023-04-28T03:43:59.861Z,9.20
2023-04-28T03:46:29.345Z,9.43
2023-04-28T03:48:57.725Z,10.07
2023-04-28T03:51:26.189Z,10.30
2023-04-28T03:53:54.240Z,9.47
2023-04-28T03:56:23.116Z,9.17
2023-04-28T03:58:51.775Z,9.43
2023-04-28T04:01:20.545Z,9.07
2023-04-28T04:03:49.230Z,10.17
2023-04-28T04:06:17.976Z,9.57
2023-04-28T04:08:46.681Z,9.87
2023-04-28T04:11:15.354Z,10.30
2023-04-28T04:13:43.789Z,10.20
2023-04-28T04:16:12.356Z,9.93
2023-04-28T04:18:40.926Z,10.33
2023-04-28T04:21:09.380Z,10.23
2023-04-28T04:23:38.526Z,10.53
2023-04-28T04:26:07.018Z,9.73
2023-04-28T04:28:35.842Z,10.03
2023-04-28T04:31:04.410Z,10.30
2023-04-28T04:33:33.217Z,9.77
2023-04-28T04:36:01.703Z,9.50
2023-04-28T04:38:30.551Z,9.27
2023-04-28T04:40:59.075Z,10.83
2023-04-28T04:43:27.555Z,10.07
2023-04-28T04:45:56.603Z,10.90
2023-04-28T04:48:25.290Z,10.33
2023-04-28T04:50:53.517Z,9.93
2023-04-28T04:53:22.108Z,10.27
2023-04-28T04:55:50.742Z,10.00
2023-04-28T04:58:20.202Z,10.23
2023-04-28T05:00:48.719Z,10.77
2023-04-28T05:03:19.539Z,10.90
2023-04-28T05:05:48.943Z,8.80
2023-04-28T05:08:17.273Z,9.80
2023-04-28T05:10:45.839Z,10.27
2023-04-28T05:13:14.425Z,9.40
2023-04-28T05:15:43.084Z,9.17
2023-04-28T05:18:11.571Z,10.23
2023-04-28T05:20:40.170Z,9.97
2023-04-28T05:23:08.736Z,10.10
2023-04-28T05:25:37.280Z,9.90
2023-04-28T05:28:07.769Z,9.73
2023-04-28T05:30:36.197Z,9.37
2023-04-28T05:33:04.981Z,10.10
2023-04-28T05:35:33.570Z,9.70
2023-04-28T05:38:02.079Z,9.80
2023-04-28T05:40:30.812Z,9.27
2023-04-28T05:42:59.413Z,9.43
2023-04-28T05:45:27.935Z,9.23
2023-04-28T05:47:56.657Z,9.57
2023-04-28T05:50:25.121Z,10.23
2023-04-28T05:52:53.248Z,9.43
2023-04-28T05:55:22.085Z,9.97
2023-04-28T05:57:53.437Z,9.53
2023-04-28T06:00:22.882Z,9.17
2023-04-28T06:02:51.136Z,9.27
2023-04-28T06:05:19.881Z,9.77
2023-04-28T06:07:50.202Z,9.13
2023-04-28T06:10:19.861Z,9.10
2023-04-28T06:12:48.290Z,9.27
2023-04-28T06:15:16.827Z,8.87
2023-04-28T06:17:45.797Z,9.07
2023-04-28T06:20:14.580Z,9.27
2023-04-28T06:22:49.978Z,8.30
2023-04-28T06:25:18.545Z,8.57
2023-04-28T06:27:47.037Z,8.30
2023-04-28T06:30:24.311Z,8.60
2023-04-28T06:32:52.934Z,8.47
2023-04-28T06:35:22.098Z,8.50
2023-04-28T06:37:50.485Z,8.30
2023-04-28T06:40:18.996Z,8.93
2023-04-28T06:42:47.862Z,8.47
2023-04-28T06:45:16.399Z,9.03
2023-04-28T06:47:45.331Z,8.37
2023-04-28T06:50:13.801Z,7.73
2023-04-28T06:52:42.892Z,8.37
2023-04-28T06:55:11.695Z,9.43
2023-04-28T06:57:40.121Z,8.87
2023-04-28T07:00:09.267Z,8.20
2023-04-28T07:02:38.237Z,9.17
2023-04-28T07:05:07.334Z,9.10
2023-04-28T07:07:38.629Z,8.47
2023-04-28T07:10:08.826Z,8.60
2023-04-28T07:12:37.359Z,8.40
2023-04-28T07:15:06.594Z,7.67
2023-04-28T07:17:35.206Z,7.00
2023-04-28T07:20:04.399Z,7.37
2023-04-28T07:22:32.954Z,8.10
2023-04-28T07:25:02.138Z,7.47
2023-04-28T07:27:30.657Z,6.73
2023-04-28T07:29:59.160Z,7.83
2023-04-28T07:32:27.992Z,8.53
2023-04-28T07:34:56.070Z,6.90
2023-04-28T07:37:24.682Z,7.37
2023-04-28T07:39:53.136Z,8.77
2023-04-28T07:42:21.577Z,8.00
2023-04-28T07:44:50.020Z,6.13
2023-04-28T07:47:18.572Z,6.50
2023-04-28T07:49:46.709Z,5.63
2023-04-28T07:52:15.210Z,7.13
2023-04-28T07:54:43.708Z,11.43
2023-04-28T07:57:12.147Z,8.10
2023-04-28T07:59:40.830Z,7.47
2023-04-28T08:02:09.409Z,9.20
2023-04-28T08:04:40.865Z,8.40
2023-04-28T08:07:10.614Z,7.37
2023-04-28T08:09:41.651Z,6.67
2023-04-28T08:12:10.191Z,6.57
2023-04-28T08:14:38.635Z,7.33
2023-04-28T08:17:07.171Z,7.67
2023-04-28T08:19:35.626Z,7.00
2023-04-28T08:22:06.010Z,7.10
2023-04-28T08:24:35.454Z,6.37
2023-04-28T08:27:04.571Z,6.23
2023-04-28T08:29:33.547Z,5.63
2023-04-28T08:32:02.394Z,5.20
2023-04-28T08:34:30.898Z,5.00
2023-04-28T08:36:59.415Z,5.27
2023-04-28T08:39:28.097Z,5.60
2023-04-28T08:41:57.738Z,4.67
2023-04-28T08:44:26.361Z,4.67
2023-04-28T08:46:58.065Z,5.27
2023-04-28T08:49:37.242Z,5.13
2023-04-28T08:52:14.222Z,5.37
2023-04-28T08:54:42.840Z,5.03
2023-04-28T08:57:12.188Z,4.90
2023-04-28T08:59:42.115Z,4.77
2023-04-28T09:02:11.408Z,5.60
2023-04-28T09:04:39.903Z,4.70
2023-04-28T09:07:15.399Z,4.43
2023-04-28T09:09:45.317Z,4.30
2023-04-28T09:12:13.684Z,4.70
2023-04-28T09:14:42.153Z,4.47
2023-04-28T09:17:16.573Z,5.90
2023-04-28T09:19:45.128Z,4.97
2023-04-28T09:22:26.464Z,5.23
2023-04-28T09:24:56.329Z,5.03
2023-04-28T09:27:29.476Z,5.80
2023-04-28T09:29:58.177Z,6.10
2023-04-28T09:32:28.115Z,6.63
2023-04-28T09:34:57.732Z,6.53
2023-04-28T09:37:30.912Z,6.10
2023-04-28T09:40:12.453Z,5.67
2023-04-28T09:42:46.642Z,6.67
2023-04-28T09:45:16.691Z,5.90
2023-04-28T09:47:48.379Z,5.70
2023-04-28T09:50:18.482Z,6.80
2023-04-28T09:52:58.035Z,7.20
2023-04-28T09:55:26.402Z,6.77
2023-04-28T09:57:56.522Z,6.57
2023-04-28T10:00:25.217Z,6.67
2023-04-28T10:02:53.885Z,7.30
2023-04-28T10:05:24.172Z,7.07
2023-04-28T10:07:55.178Z,7.03
2023-04-28T10:10:25.190Z,7.10
2023-04-28T10:12:53.778Z,6.80
2023-04-28T10:15:22.556Z,6.40
2023-04-28T10:17:52.805Z,6.57
2023-04-28T10:20:23.367Z,6.67
2023-04-28T10:22:51.796Z,5.53
2023-04-28T10:25:34.139Z,7.10
2023-04-28T10:28:06.237Z,7.23
2023-04-28T10:30:35.236Z,7.43
2023-04-28T10:33:15.524Z,8.23
2023-04-28T10:35:48.660Z,7.37
2023-04-28T10:38:19.120Z,7.23
2023-04-28T10:40:52.430Z,8.60
2023-04-28T10:43:27.010Z,6.63
2023-04-28T10:45:57.541Z,6.70
2023-04-28T10:48:49.229Z,7.70
2023-04-28T10:51:17.687Z,8.87
2023-04-28T10:53:46.731Z,7.87
2023-04-28T10:56:24.887Z,7.67
2023-04-28T10:58:57.739Z,8.63
2023-04-28T11:01:32.285Z,8.00
2023-04-28T11:04:13.128Z,8.03
2023-04-28T11:06:47.064Z,7.50
2023-04-28T11:09:15.685Z,7.30
2023-04-28T11:12:02.111Z,8.57
2023-04-28T11:14:30.140Z,7.93
2023-04-28T11:17:01.204Z,8.43
2023-04-28T11:19:37.898Z,7.63
2023-04-28T11:22:23.651Z,7.60
2023-04-28T11:25:04.020Z,7.30
2023-04-28T11:27:34.855Z,7.60
2023-04-28T11:30:04.911Z,8.10
2023-04-28T11:32:35.795Z,7.17
2023-04-28T11:35:09.447Z,6.90
2023-04-28T11:37:37.924Z,8.30
2023-04-28T11:40:14.140Z,7.33
2023-04-28T11:42:49.939Z,6.90
2023-04-28T11:45:18.674Z,6.53
2023-04-28T11:47:47.209Z,6.70
2023-04-28T11:50:16.145Z,6.47
2023-04-28T11:52:53.445Z,7.67
2023-04-28T11:55:22.366Z,8.20
2023-04-28T11:58:22.446Z,8.17
2023-04-28T12:01:13.864Z,6.87
2023-04-28T12:03:49.423Z,8.40
2023-04-28T12:06:20.885Z,8.00
2023-04-28T12:08:49.894Z,8.73
2023-04-28T12:11:19.955Z,7.67
2023-04-28T12:14:09.082Z,8.10
2023-04-28T12:16:44.836Z,7.20
2023-04-28T12:19:15.251Z,7.57
2023-04-28T12:21:44.456Z,6.87
2023-04-28T12:24:22.501Z,7.07
2023-04-28T12:26:51.262Z,6.50
2023-04-28T12:29:42.517Z,7.03
2023-04-28T12:32:12.586Z,6.17
2023-04-28T12:34:43.814Z,6.90
2023-04-28T12:37:12.337Z,7.13
2023-04-28T12:39:42.495Z,6.50
2023-04-28T12:42:11.112Z,7.33
2023-04-28T12:44:40.911Z,6.17
2023-04-28T12:47:11.931Z,6.33
2023-04-28T12:49:41.509Z,5.90
2023-04-28T12:52:10.093Z,6.47
2023-04-28T12:54:38.720Z,6.13
2023-04-28T12:57:07.335Z,6.27
2023-04-28T12:59:35.879Z,6.73
2023-04-28T13:02:04.362Z,6.47
2023-04-28T13:04:33.387Z,5.33
2023-04-28T13:07:02.499Z,4.87
2023-04-28T13:09:30.969Z,5.53
2023-04-28T13:11:59.417Z,6.77
2023-04-28T13:14:29.183Z,6.40
2023-04-28T13:16:57.841Z,5.60
2023-04-28T13:19:27.858Z,6.87
2023-04-28T13:21:56.274Z,5.47
2023-04-28T13:24:24.743Z,5.40
2023-04-28T13:26:53.725Z,6.70
2023-04-28T13:29:22.643Z,5.67
2023-04-28T13:31:51.271Z,5.50
2023-04-28T13:34:19.785Z,5.70
2023-04-28T13:36:51.068Z,6.03
2023-04-28T13:39:20.327Z,5.43
2023-04-28T13:41:49.539Z,5.20
2023-04-28T13:44:18.477Z,5.43
2023-04-28T13:46:47.304Z,5.60
2023-04-28T13:49:16.539Z,5.97
2023-04-28T13:51:45.698Z,5.27
2023-04-28T13:54:14.238Z,4.20
2023-04-28T13:56:42.756Z,5.33
2023-04-28T13:59:10.870Z,4.87
2023-04-28T14:01:39.371Z,4.80
2023-04-28T14:04:08.048Z,4.13
2023-04-28T14:06:37.269Z,4.43
2023-04-28T14:09:06.482Z,5.00
2023-04-28T14:11:34.983Z,3.60
2023-04-28T14:14:03.486Z,3.97
2023-04-28T14:16:31.932Z,3.90
2023-04-28T14:19:00.638Z,4.43
2023-04-28T14:21:29.117Z,4.23
2023-04-28T14:23:57.559Z,4.60
2023-04-28T14:26:26.115Z,3.80
2023-04-28T14:28:56.220Z,4.20
2023-04-28T14:31:24.981Z,4.00
2023-04-28T14:33:53.165Z,4.07
2023-04-28T14:36:21.734Z,3.60
2023-04-28T14:38:50.340Z,4.40
2023-04-28T14:41:18.764Z,4.17
2023-04-28T14:43:47.302Z,4.40
2023-04-28T14:46:17.485Z,4.47
2023-04-28T14:48:46.361Z,4.03
2023-04-28T14:51:15.136Z,3.93
2023-04-28T14:53:44.094Z,3.37
2023-04-28T14:58:45.599Z,3.67
2023-04-28T15:01:14.211Z,4.10
2023-04-28T15:03:42.797Z,4.57
2023-04-28T15:06:11.986Z,4.43
2023-04-28T15:08:41.266Z,4.67
2023-04-28T15:11:10.077Z,4.47
2023-04-28T15:13:39.550Z,4.20
2023-04-28T15:16:10.212Z,4.43
2023-04-28T15:18:39.540Z,4.43
2023-04-28T15:21:08.635Z,4.63
2023-04-28T15:23:37.250Z,4.90
2023-04-28T15:26:09.142Z,4.00
2023-04-28T15:28:38.289Z,4.70
2023-04-28T15:31:07.027Z,4.37
2023-04-28T15:33:35.475Z,4.80
2023-04-28T15:36:03.975Z,4.00
2023-04-28T15:38:32.763Z,4.27
2023-04-28T15:41:01.505Z,3.83
2023-04-28T15:43:30.090Z,4.07
2023-04-28T15:45:58.769Z,4.20
2023-04-28T15:48:27.351Z,4.67
2023-04-28T15:50:56.096Z,5.10
2023-04-28T15:53:26.035Z,4.40
2023-04-28T15:55:54.592Z,4.47
2023-04-28T15:58:23.172Z,4.50
2023-04-28T16:00:54.739Z,4.83
2023-04-28T16:03:23.700Z,4.33
2023-04-28T16:05:54.392Z,4.83
2023-04-28T16:08:25.370Z,4.37
2023-04-28T16:10:54.254Z,4.00
2023-04-28T16:13:23.170Z,4.40
2023-04-28T16:15:51.808Z,4.07
2023-04-28T16:18:20.298Z,3.90
2023-04-28T16:20:48.394Z,4.93
2023-04-28T16:23:16.874Z,4.50
2023-04-28T16:25:45.554Z,4.47
2023-04-28T16:28:14.105Z,4.57
2023-04-28T16:30:43.376Z,4.67
2023-04-28T16:33:12.280Z,4.83
2023-04-28T16:36:00.712Z,4.10
2023-04-28T16:38:29.310Z,4.03
2023-04-28T16:40:58.087Z,4.70
2023-04-28T16:43:26.552Z,4.17
2023-04-28T16:45:55.044Z,3.73
2023-04-28T16:48:23.817Z,4.00
2023-04-28T16:50:51.977Z,4.47
2023-04-28T16:53:20.677Z,4.43
2023-04-28T16:55:49.481Z,4.10
2023-04-28T16:58:18.191Z,5.20
2023-04-28T17:00:46.687Z,4.43
2023-04-28T17:03:15.533Z,4.63
2023-04-28T17:05:44.277Z,5.20
2023-04-28T17:08:13.035Z,4.53
2023-04-28T17:10:41.097Z,5.20
2023-04-28T17:13:18.615Z,4.87
2023-04-28T17:15:47.812Z,6.30
2023-04-28T17:18:16.615Z,5.83
2023-04-28T17:20:45.200Z,5.70
2023-04-28T17:23:14.098Z,5.40
2023-04-28T17:25:42.568Z,5.50
2023-04-28T17:28:11.478Z,6.70
2023-04-28T17:30:43.863Z,6.33
2023-04-28T17:33:16.160Z,6.10
2023-04-28T17:36:14.382Z,5.63
2023-04-28T17:38:42.913Z,5.93
2023-04-28T17:41:11.099Z,6.97
2023-04-28T17:43:40.390Z,6.37
2023-04-28T17:46:09.393Z,5.70
2023-04-28T17:48:38.154Z,5.97
2023-04-28T17:51:06.892Z,6.27
2023-04-28T17:53:35.729Z,5.83
2023-04-28T17:56:04.331Z,6.00
2023-04-28T17:58:33.768Z,6.53
2023-04-28T18:01:07.683Z,6.43
2023-04-28T18:03:38.059Z,6.27
2023-04-28T18:06:14.116Z,7.00
2023-04-28T18:08:42.610Z,6.90
2023-04-28T18:11:12.277Z,6.60
2023-04-28T18:13:41.287Z,7.27
2023-04-28T18:16:13.787Z,7.00
2023-04-28T18:18:43.455Z,6.53
2023-04-28T18:21:11.593Z,6.80
2023-04-28T18:23:40.657Z,6.40
2023-04-28T18:26:09.524Z,7.30
2023-04-28T18:28:38.339Z,6.90
2023-04-28T18:31:07.336Z,6.50
2023-04-28T18:33:35.998Z,6.77
2023-04-28T18:36:07.460Z,6.67
2023-04-28T18:38:36.727Z,6.40
2023-04-28T18:41:15.463Z,7.47
2023-04-28T18:43:44.466Z,6.60
2023-04-28T18:46:13.313Z,6.40
2023-04-28T18:48:42.157Z,7.23
2023-04-28T18:51:10.781Z,7.40
2023-04-28T18:53:39.648Z,7.00
2023-04-28T18:56:08.400Z,7.87
2023-04-28T18:58:37.207Z,7.67
2023-04-28T19:01:05.980Z,7.53
2023-04-28T19:03:34.716Z,7.57
2023-04-28T19:06:04.084Z,7.50
2023-04-28T19:08:32.616Z,8.07
2023-04-28T19:11:00.858Z,8.70
2023-04-28T19:13:29.589Z,8.37
2023-04-28T19:15:58.079Z,8.50
2023-04-28T19:18:27.270Z,8.47
2023-04-28T19:21:03.422Z,8.97
2023-04-28T19:23:32.752Z,8.87
2023-04-28T19:26:01.994Z,9.80
2023-04-28T19:28:30.851Z,9.23
2023-04-28T19:30:59.869Z,8.73
2023-04-28T19:33:28.630Z,8.90
2023-04-28T19:35:58.421Z,8.37
2023-04-28T19:38:26.634Z,9.63
2023-04-28T19:41:04.202Z,8.73
2023-04-28T19:43:32.892Z,9.07
2023-04-28T19:46:01.488Z,8.80
2023-04-28T19:48:29.592Z,9.27
2023-04-28T19:50:58.744Z,9.40
2023-04-28T19:53:27.381Z,9.23
2023-04-28T19:55:57.347Z,9.53
2023-04-28T19:58:25.956Z,9.47
2023-04-28T20:00:54.770Z,9.40
2023-04-28T20:03:23.488Z,10.00
2023-04-28T20:05:52.846Z,9.23
2023-04-28T20:08:24.225Z,9.13
2023-04-28T20:10:54.264Z,10.07
2023-04-28T20:13:22.934Z,9.43
2023-04-28T20:15:51.744Z,9.80
2023-04-28T20:18:20.412Z,9.63
2023-04-28T20:20:48.904Z,9.50
2023-04-28T20:23:17.773Z,9.30
2023-04-28T20:25:46.550Z,9.23
2023-04-28T20:28:15.068Z,9.67
2023-04-28T20:30:43.700Z,10.13
2023-04-28T20:33:12.208Z,9.40
2023-04-28T20:35:40.424Z,9.83
2023-04-28T20:38:08.858Z,9.97
2023-04-28T20:40:37.102Z,10.23
2023-04-28T20:43:05.723Z,10.73
2023-04-28T20:45:34.974Z,10.20
2023-04-28T20:48:04.244Z,10.27
2023-04-28T20:50:33.430Z,10.20
2023-04-28T20:53:02.019Z,11.40
2023-04-28T20:55:30.119Z,10.77
2023-04-28T20:57:58.405Z,10.30
2023-04-28T21:00:26.626Z,11.20
2023-04-28T21:02:55.502Z,12.50
2023-04-28T21:05:24.167Z,12.17
2023-04-28T21:07:52.759Z,12.10
2023-04-28T21:10:21.242Z,11.77
2023-04-28T21:12:50.045Z,12.53
2023-04-28T21:15:18.752Z,11.70
2023-04-28T21:17:48.103Z,11.03
2023-04-28T21:20:16.761Z,11.70
2023-04-28T21:22:45.443Z,12.57
2023-04-28T21:25:13.761Z,12.60
2023-04-28T21:27:42.559Z,12.20
2023-04-28T21:30:13.004Z,11.80
2023-04-28T21:32:42.171Z,11.13
2023-04-28T21:35:10.949Z,10.93
2023-04-28T21:37:39.121Z,11.73
2023-04-28T21:40:08.527Z,12.10
2023-04-28T21:42:37.057Z,12.10
2023-04-28T21:45:05.940Z,11.80
2023-04-28T21:47:34.452Z,12.70
2023-04-28T21:50:02.578Z,12.20
2023-04-28T21:52:31.365Z,13.00
2023-04-28T21:55:00.036Z,12.47
2023-04-28T21:57:28.580Z,11.60
2023-04-28T21:59:57.112Z,11.60
2023-04-28T22:02:25.873Z,11.83
2023-04-28T22:04:55.218Z,11.33
2023-04-28T22:07:25.689Z,11.47
2023-04-28T22:09:54.428Z,11.80
2023-04-28T22:12:22.921Z,11.47
2023-04-28T22:14:51.285Z,10.73
2023-04-28T22:17:19.510Z,11.63
2023-04-28T22:19:48.287Z,11.23
2023-04-28T22:22:17.029Z,11.60
2023-04-28T22:24:45.515Z,10.70
2023-04-28T22:27:13.839Z,12.20
2023-04-28T22:29:42.529Z,11.87
2023-04-28T22:32:12.050Z,12.70
2023-04-28T22:34:40.964Z,12.40
2023-04-28T22:37:10.317Z,12.07
2023-04-28T22:39:38.958Z,11.70
2023-04-28T22:42:07.608Z,12.47
2023-04-28T22:44:35.778Z,11.27
2023-04-28T22:47:05.090Z,12.90
2023-04-28T22:49:33.549Z,12.10
2023-04-28T22:52:02.421Z,12.30
2023-04-28T22:54:31.962Z,12.03
2023-04-28T22:57:00.590Z,11.77
2023-04-28T22:59:28.747Z,11.57
2023-04-28T23:01:57.404Z,12.57
2023-04-28T23:04:25.620Z,12.10
2023-04-28T23:06:54.204Z,12.57
2023-04-28T23:09:22.420Z,12.30
2023-04-28T23:11:50.970Z,11.40
2023-04-28T23:14:19.559Z,11.00
2023-04-28T23:16:47.620Z,12.30
2023-04-28T23:19:17.585Z,12.17
2023-04-28T23:21:48.016Z,11.73
2023-04-28T23:24:16.288Z,11.57
2023-04-28T23:26:44.357Z,11.13
2023-04-28T23:29:12.849Z,11.20
2023-04-28T23:31:41.321Z,11.83
2023-04-28T23:34:10.028Z,10.80
2023-04-28T23:36:38.607Z,12.30
2023-04-28T23:39:07.170Z,12.37
2023-04-28T23:41:35.372Z,12.00
2023-04-28T23:44:03.959Z,11.80
2023-04-28T23:46:32.556Z,12.27
2023-04-28T23:49:01.317Z,12.33
2023-04-28T23:51:29.765Z,12.50
2023-04-28T23:53:58.216Z,13.40
2023-04-28T23:56:26.848Z,12.13
2023-04-28T23:58:55.614Z,12.37
